sensor_id;sensor_type;location;lat;lon;timestamp;P1;durP1;ratioP1;P2;durP2;ratioP2
23517;SDS011;11935;50.878;4.392;2023-01-28T00:00:32;13.10;;;8.57;;
23517;SDS011;11935;50.878;4.392;2023-01-28T00:02:59;12.90;;;9.35;;
23517;SDS011;11935;50.878;4.392;2023-01-28T00:05:25;12.40;;;9.80;;
23517;SDS011;11935;50.878;4.392;2023-01-28T00:07:51;14.10;;;8.80;;
23517;SDS011;11935;50.878;4.392;2023-01-28T00:10:17;11.90;;;9.30;;
23517;SDS011;11935;50.878;4.392;2023-01-28T00:12:43;11.93;;;9.15;;
23517;SDS011;11935;50.878;4.392;2023-01-28T00:15:09;13.00;;;9.38;;
23517;SDS011;11935;50.878;4.392;2023-01-28T00:17:36;13.07;;;8.98;;
23517;SDS011;11935;50.878;4.392;2023-01-28T00:20:03;12.60;;;9.45;;
23517;SDS011;11935;50.878;4.392;2023-01-28T00:22:29;11.60;;;7.97;;
23517;SDS011;11935;50.878;4.392;2023-01-28T00:24:56;12.43;;;9.32;;
23517;SDS011;11935;50.878;4.392;2023-01-28T00:27:22;11.65;;;9.40;;
23517;SDS011;11935;50.878;4.392;2023-01-28T00:29:49;13.80;;;9.82;;
23517;SDS011;11935;50.878;4.392;2023-01-28T00:32:15;13.25;;;9.82;;
23517;SDS011;11935;50.878;4.392;2023-01-28T00:34:41;13.98;;;10.35;;
23517;SDS011;11935;50.878;4.392;2023-01-28T00:37:07;15.43;;;10.13;;
23517;SDS011;11935;50.878;4.392;2023-01-28T00:39:33;13.93;;;9.52;;
23517;SDS011;11935;50.878;4.392;2023-01-28T00:41:59;16.52;;;9.50;;
23517;SDS011;11935;50.878;4.392;2023-01-28T00:44:26;14.32;;;10.00;;
23517;SDS011;11935;50.878;4.392;2023-01-28T00:46:52;12.40;;;9.35;;
23517;SDS011;11935;50.878;4.392;2023-01-28T00:49:18;10.00;;;7.55;;
23517;SDS011;11935;50.878;4.392;2023-01-28T00:51:44;10.65;;;8.18;;
23517;SDS011;11935;50.878;4.392;2023-01-28T00:56:38;10.48;;;8.10;;
23517;SDS011;11935;50.878;4.392;2023-01-28T00:59:04;12.38;;;8.30;;
23517;SDS011;11935;50.878;4.392;2023-01-28T01:01:31;10.25;;;8.18;;
23517;SDS011;11935;50.878;4.392;2023-01-28T01:03:57;11.90;;;8.70;;
23517;SDS011;11935;50.878;4.392;2023-01-28T01:06:27;11.55;;;7.93;;
23517;SDS011;11935;50.878;4.392;2023-01-28T01:08:53;13.27;;;7.88;;
23517;SDS011;11935;50.878;4.392;2023-01-28T01:11:19;11.40;;;8.02;;
23517;SDS011;11935;50.878;4.392;2023-01-28T01:13:49;10.35;;;7.85;;
23517;SDS011;11935;50.878;4.392;2023-01-28T01:16:15;11.80;;;8.02;;
23517;SDS011;11935;50.878;4.392;2023-01-28T01:18:41;10.65;;;8.38;;
23517;SDS011;11935;50.878;4.392;2023-01-28T01:21:08;10.85;;;8.68;;
23517;SDS011;11935;50.878;4.392;2023-01-28T01:23:34;11.77;;;8.35;;
23517;SDS011;11935;50.878;4.392;2023-01-28T01:26:00;11.18;;;8.07;;
23517;SDS011;11935;50.878;4.392;2023-01-28T01:28:27;12.75;;;9.45;;
23517;SDS011;11935;50.878;4.392;2023-01-28T01:31:04;14.05;;;9.27;;
23517;SDS011;11935;50.878;4.392;2023-01-28T01:33:31;13.20;;;9.50;;
23517;SDS011;11935;50.878;4.392;2023-01-28T01:35:57;13.07;;;8.98;;
23517;SDS011;11935;50.878;4.392;2023-01-28T01:38:23;13.65;;;9.68;;
23517;SDS011;11935;50.878;4.392;2023-01-28T01:40:50;12.80;;;9.35;;
23517;SDS011;11935;50.878;4.392;2023-01-28T01:43:17;12.70;;;9.30;;
23517;SDS011;11935;50.878;4.392;2023-01-28T01:45:43;13.98;;;9.65;;
23517;SDS011;11935;50.878;4.392;2023-01-28T01:48:17;13.73;;;8.80;;
23517;SDS011;11935;50.878;4.392;2023-01-28T01:50:50;14.75;;;9.63;;
23517;SDS011;11935;50.878;4.392;2023-01-28T01:53:17;13.60;;;9.70;;
23517;SDS011;11935;50.878;4.392;2023-01-28T01:55:46;13.30;;;9.38;;
23517;SDS011;11935;50.878;4.392;2023-01-28T01:58:17;12.80;;;9.20;;
23517;SDS011;11935;50.878;4.392;2023-01-28T02:00:43;13.93;;;9.45;;
23517;SDS011;11935;50.878;4.392;2023-01-28T02:03:11;14.45;;;9.63;;
23517;SDS011;11935;50.878;4.392;2023-01-28T02:05:37;13.90;;;9.32;;
23517;SDS011;11935;50.878;4.392;2023-01-28T02:08:04;13.55;;;9.27;;
23517;SDS011;11935;50.878;4.392;2023-01-28T02:10:49;13.00;;;9.15;;
23517;SDS011;11935;50.878;4.392;2023-01-28T02:13:17;14.35;;;9.90;;
23517;SDS011;11935;50.878;4.392;2023-01-28T02:15:44;15.25;;;9.60;;
23517;SDS011;11935;50.878;4.392;2023-01-28T02:18:10;19.38;;;12.60;;
23517;SDS011;11935;50.878;4.392;2023-01-28T02:21:01;16.17;;;10.88;;
23517;SDS011;11935;50.878;4.392;2023-01-28T02:28:33;13.57;;;9.73;;
23517;SDS011;11935;50.878;4.392;2023-01-28T02:39:08;15.10;;;10.73;;
23517;SDS011;11935;50.878;4.392;2023-01-28T02:41:39;16.70;;;10.50;;
23517;SDS011;11935;50.878;4.392;2023-01-28T02:44:07;13.85;;;8.95;;
23517;SDS011;11935;50.878;4.392;2023-01-28T02:46:35;15.10;;;9.95;;
23517;SDS011;11935;50.878;4.392;2023-01-28T02:49:42;13.48;;;9.07;;
23517;SDS011;11935;50.878;4.392;2023-01-28T03:02:19;15.13;;;9.45;;
23517;SDS011;11935;50.878;4.392;2023-01-28T03:07:19;13.32;;;9.32;;
23517;SDS011;11935;50.878;4.392;2023-01-28T03:09:46;13.88;;;9.18;;
23517;SDS011;11935;50.878;4.392;2023-01-28T03:12:17;14.40;;;9.65;;
23517;SDS011;11935;50.878;4.392;2023-01-28T03:15:05;12.98;;;8.70;;
23517;SDS011;11935;50.878;4.392;2023-01-28T03:18:02;15.45;;;9.68;;
23517;SDS011;11935;50.878;4.392;2023-01-28T03:20:53;12.68;;;9.43;;
23517;SDS011;11935;50.878;4.392;2023-01-28T03:23:51;14.57;;;9.23;;
23517;SDS011;11935;50.878;4.392;2023-01-28T03:26:37;13.10;;;8.82;;
23517;SDS011;11935;50.878;4.392;2023-01-28T03:29:25;13.43;;;8.85;;
23517;SDS011;11935;50.878;4.392;2023-01-28T03:32:12;12.77;;;8.93;;
23517;SDS011;11935;50.878;4.392;2023-01-28T03:34:57;12.85;;;8.77;;
23517;SDS011;11935;50.878;4.392;2023-01-28T03:37:42;14.32;;;9.70;;
23517;SDS011;11935;50.878;4.392;2023-01-28T03:40:08;15.63;;;9.82;;
23517;SDS011;11935;50.878;4.392;2023-01-28T03:42:34;13.70;;;8.98;;
23517;SDS011;11935;50.878;4.392;2023-01-28T03:45:00;12.88;;;8.60;;
23517;SDS011;11935;50.878;4.392;2023-01-28T03:47:29;12.13;;;8.20;;
23517;SDS011;11935;50.878;4.392;2023-01-28T03:49:56;13.30;;;8.40;;
23517;SDS011;11935;50.878;4.392;2023-01-28T03:52:24;16.00;;;9.55;;
23517;SDS011;11935;50.878;4.392;2023-01-28T03:54:54;11.97;;;8.77;;
23517;SDS011;11935;50.878;4.392;2023-01-28T03:57:21;14.00;;;9.18;;
23517;SDS011;11935;50.878;4.392;2023-01-28T03:59:47;14.60;;;8.97;;
23517;SDS011;11935;50.878;4.392;2023-01-28T04:02:14;14.82;;;9.57;;
23517;SDS011;11935;50.878;4.392;2023-01-28T04:04:40;14.32;;;8.98;;
23517;SDS011;11935;50.878;4.392;2023-01-28T04:07:09;14.77;;;9.00;;
23517;SDS011;11935;50.878;4.392;2023-01-28T04:09:36;14.95;;;9.02;;
23517;SDS011;11935;50.878;4.392;2023-01-28T04:12:03;14.27;;;7.93;;
23517;SDS011;11935;50.878;4.392;2023-01-28T04:14:29;13.57;;;8.80;;
23517;SDS011;11935;50.878;4.392;2023-01-28T04:16:55;12.73;;;8.30;;
23517;SDS011;11935;50.878;4.392;2023-01-28T04:19:21;10.85;;;6.95;;
23517;SDS011;11935;50.878;4.392;2023-01-28T04:21:48;14.93;;;8.73;;
23517;SDS011;11935;50.878;4.392;2023-01-28T04:24:14;11.82;;;8.10;;
23517;SDS011;11935;50.878;4.392;2023-01-28T04:26:40;13.00;;;8.80;;
23517;SDS011;11935;50.878;4.392;2023-01-28T04:29:07;13.25;;;8.13;;
23517;SDS011;11935;50.878;4.392;2023-01-28T04:31:33;14.55;;;9.40;;
23517;SDS011;11935;50.878;4.392;2023-01-28T04:33:59;15.63;;;9.43;;
23517;SDS011;11935;50.878;4.392;2023-01-28T04:36:25;16.90;;;9.73;;
23517;SDS011;11935;50.878;4.392;2023-01-28T04:38:51;12.88;;;8.82;;
23517;SDS011;11935;50.878;4.392;2023-01-28T04:41:18;12.90;;;8.48;;
23517;SDS011;11935;50.878;4.392;2023-01-28T04:43:44;13.75;;;8.80;;
23517;SDS011;11935;50.878;4.392;2023-01-28T04:48:39;13.10;;;8.05;;
23517;SDS011;11935;50.878;4.392;2023-01-28T04:51:05;13.45;;;8.80;;
23517;SDS011;11935;50.878;4.392;2023-01-28T04:53:32;11.98;;;8.20;;
23517;SDS011;11935;50.878;4.392;2023-01-28T04:55:58;14.10;;;10.00;;
23517;SDS011;11935;50.878;4.392;2023-01-28T04:58:24;13.52;;;9.13;;
23517;SDS011;11935;50.878;4.392;2023-01-28T05:00:52;15.18;;;9.20;;
23517;SDS011;11935;50.878;4.392;2023-01-28T05:03:18;13.70;;;9.02;;
23517;SDS011;11935;50.878;4.392;2023-01-28T05:05:44;14.55;;;10.05;;
23517;SDS011;11935;50.878;4.392;2023-01-28T05:08:10;14.55;;;9.55;;
23517;SDS011;11935;50.878;4.392;2023-01-28T05:10:37;15.35;;;10.20;;
23517;SDS011;11935;50.878;4.392;2023-01-28T05:13:04;16.35;;;10.27;;
23517;SDS011;11935;50.878;4.392;2023-01-28T05:15:30;16.92;;;10.48;;
23517;SDS011;11935;50.878;4.392;2023-01-28T05:17:56;14.60;;;10.07;;
23517;SDS011;11935;50.878;4.392;2023-01-28T05:20:24;16.83;;;11.27;;
23517;SDS011;11935;50.878;4.392;2023-01-28T05:22:50;15.20;;;10.25;;
23517;SDS011;11935;50.878;4.392;2023-01-28T05:25:16;13.45;;;9.43;;
23517;SDS011;11935;50.878;4.392;2023-01-28T05:27:42;14.50;;;9.30;;
23517;SDS011;11935;50.878;4.392;2023-01-28T05:30:09;16.30;;;10.35;;
23517;SDS011;11935;50.878;4.392;2023-01-28T05:32:35;13.75;;;9.73;;
23517;SDS011;11935;50.878;4.392;2023-01-28T05:35:01;14.90;;;10.07;;
23517;SDS011;11935;50.878;4.392;2023-01-28T05:37:27;14.77;;;9.30;;
23517;SDS011;11935;50.878;4.392;2023-01-28T05:39:53;13.30;;;9.02;;
23517;SDS011;11935;50.878;4.392;2023-01-28T05:42:19;13.75;;;9.48;;
23517;SDS011;11935;50.878;4.392;2023-01-28T05:44:46;13.13;;;9.15;;
23517;SDS011;11935;50.878;4.392;2023-01-28T05:47:12;12.73;;;9.43;;
23517;SDS011;11935;50.878;4.392;2023-01-28T05:49:38;14.88;;;9.57;;
23517;SDS011;11935;50.878;4.392;2023-01-28T05:52:04;14.05;;;9.60;;
23517;SDS011;11935;50.878;4.392;2023-01-28T05:54:31;15.77;;;10.27;;
23517;SDS011;11935;50.878;4.392;2023-01-28T05:56:57;13.88;;;9.30;;
23517;SDS011;11935;50.878;4.392;2023-01-28T05:59:23;16.52;;;9.57;;
23517;SDS011;11935;50.878;4.392;2023-01-28T06:01:49;15.48;;;9.95;;
23517;SDS011;11935;50.878;4.392;2023-01-28T06:04:15;14.82;;;9.98;;
23517;SDS011;11935;50.878;4.392;2023-01-28T06:06:43;14.63;;;9.37;;
23517;SDS011;11935;50.878;4.392;2023-01-28T06:09:09;14.20;;;9.43;;
23517;SDS011;11935;50.878;4.392;2023-01-28T06:11:35;13.43;;;9.35;;
23517;SDS011;11935;50.878;4.392;2023-01-28T06:14:01;13.50;;;9.63;;
23517;SDS011;11935;50.878;4.392;2023-01-28T06:16:27;14.50;;;9.85;;
23517;SDS011;11935;50.878;4.392;2023-01-28T06:18:53;15.95;;;10.13;;
23517;SDS011;11935;50.878;4.392;2023-01-28T06:21:19;13.20;;;9.38;;
23517;SDS011;11935;50.878;4.392;2023-01-28T06:23:45;12.93;;;8.93;;
23517;SDS011;11935;50.878;4.392;2023-01-28T06:26:11;14.20;;;9.60;;
23517;SDS011;11935;50.878;4.392;2023-01-28T06:28:39;12.60;;;8.98;;
23517;SDS011;11935;50.878;4.392;2023-01-28T06:31:05;13.07;;;8.80;;
23517;SDS011;11935;50.878;4.392;2023-01-28T06:33:31;11.57;;;8.20;;
23517;SDS011;11935;50.878;4.392;2023-01-28T06:35:57;11.80;;;8.27;;
23517;SDS011;11935;50.878;4.392;2023-01-28T06:38:23;14.50;;;8.77;;
23517;SDS011;11935;50.878;4.392;2023-01-28T06:40:50;15.07;;;9.25;;
23517;SDS011;11935;50.878;4.392;2023-01-28T06:43:16;12.65;;;8.80;;
23517;SDS011;11935;50.878;4.392;2023-01-28T06:45:42;13.48;;;8.75;;
23517;SDS011;11935;50.878;4.392;2023-01-28T06:48:09;13.65;;;8.55;;
23517;SDS011;11935;50.878;4.392;2023-01-28T06:50:35;13.10;;;8.68;;
23517;SDS011;11935;50.878;4.392;2023-01-28T06:53:01;11.23;;;7.68;;
23517;SDS011;11935;50.878;4.392;2023-01-28T06:55:27;12.02;;;8.82;;
23517;SDS011;11935;50.878;4.392;2023-01-28T06:57:53;11.98;;;7.95;;
23517;SDS011;11935;50.878;4.392;2023-01-28T07:00:19;9.50;;;6.30;;
23517;SDS011;11935;50.878;4.392;2023-01-28T07:02:45;12.35;;;9.10;;
23517;SDS011;11935;50.878;4.392;2023-01-28T07:05:11;12.50;;;9.05;;
23517;SDS011;11935;50.878;4.392;2023-01-28T07:07:37;13.02;;;9.07;;
23517;SDS011;11935;50.878;4.392;2023-01-28T07:10:04;11.48;;;8.32;;
23517;SDS011;11935;50.878;4.392;2023-01-28T07:12:30;12.85;;;8.80;;
23517;SDS011;11935;50.878;4.392;2023-01-28T07:14:56;12.43;;;8.25;;
23517;SDS011;11935;50.878;4.392;2023-01-28T07:17:22;13.25;;;8.82;;
23517;SDS011;11935;50.878;4.392;2023-01-28T07:19:48;13.32;;;9.32;;
23517;SDS011;11935;50.878;4.392;2023-01-28T07:22:14;13.35;;;9.40;;
23517;SDS011;11935;50.878;4.392;2023-01-28T07:24:40;13.07;;;8.70;;
23517;SDS011;11935;50.878;4.392;2023-01-28T07:27:06;13.63;;;9.93;;
23517;SDS011;11935;50.878;4.392;2023-01-28T07:29:32;12.57;;;9.05;;
23517;SDS011;11935;50.878;4.392;2023-01-28T07:31:58;13.52;;;8.88;;
23517;SDS011;11935;50.878;4.392;2023-01-28T07:34:24;11.43;;;8.50;;
23517;SDS011;11935;50.878;4.392;2023-01-28T07:36:50;13.45;;;7.97;;
23517;SDS011;11935;50.878;4.392;2023-01-28T07:39:17;11.60;;;8.70;;
23517;SDS011;11935;50.878;4.392;2023-01-28T07:41:43;11.30;;;8.00;;
23517;SDS011;11935;50.878;4.392;2023-01-28T07:44:09;11.25;;;7.68;;
23517;SDS011;11935;50.878;4.392;2023-01-28T07:46:35;13.40;;;9.02;;
23517;SDS011;11935;50.878;4.392;2023-01-28T07:49:02;13.30;;;9.63;;
23517;SDS011;11935;50.878;4.392;2023-01-28T07:51:28;13.10;;;9.45;;
23517;SDS011;11935;50.878;4.392;2023-01-28T07:53:54;12.80;;;8.45;;
23517;SDS011;11935;50.878;4.392;2023-01-28T07:56:20;13.30;;;9.10;;
23517;SDS011;11935;50.878;4.392;2023-01-28T07:58:48;13.63;;;9.48;;
23517;SDS011;11935;50.878;4.392;2023-01-28T08:01:14;15.25;;;8.73;;
23517;SDS011;11935;50.878;4.392;2023-01-28T08:03:40;12.43;;;8.52;;
23517;SDS011;11935;50.878;4.392;2023-01-28T08:06:06;12.93;;;8.35;;
23517;SDS011;11935;50.878;4.392;2023-01-28T08:08:32;15.68;;;8.73;;
23517;SDS011;11935;50.878;4.392;2023-01-28T08:11:04;13.30;;;8.48;;
23517;SDS011;11935;50.878;4.392;2023-01-28T08:13:32;13.20;;;9.30;;
23517;SDS011;11935;50.878;4.392;2023-01-28T08:15:59;13.93;;;7.82;;
23517;SDS011;11935;50.878;4.392;2023-01-28T08:18:25;13.88;;;9.65;;
23517;SDS011;11935;50.878;4.392;2023-01-28T08:20:55;15.13;;;8.18;;
23517;SDS011;11935;50.878;4.392;2023-01-28T08:23:21;14.27;;;9.00;;
23517;SDS011;11935;50.878;4.392;2023-01-28T08:25:47;12.60;;;8.27;;
23517;SDS011;11935;50.878;4.392;2023-01-28T08:28:14;17.58;;;9.93;;
23517;SDS011;11935;50.878;4.392;2023-01-28T08:30:40;12.73;;;8.50;;
23517;SDS011;11935;50.878;4.392;2023-01-28T08:33:07;13.70;;;8.90;;
23517;SDS011;11935;50.878;4.392;2023-01-28T08:35:34;13.15;;;9.10;;
23517;SDS011;11935;50.878;4.392;2023-01-28T08:38:00;17.65;;;9.63;;
23517;SDS011;11935;50.878;4.392;2023-01-28T08:40:27;15.50;;;9.15;;
23517;SDS011;11935;50.878;4.392;2023-01-28T08:42:54;15.15;;;9.23;;
23517;SDS011;11935;50.878;4.392;2023-01-28T08:45:21;14.40;;;7.50;;
23517;SDS011;11935;50.878;4.392;2023-01-28T08:47:53;13.63;;;9.65;;
23517;SDS011;11935;50.878;4.392;2023-01-28T08:50:19;16.35;;;9.85;;
23517;SDS011;11935;50.878;4.392;2023-01-28T08:52:46;15.35;;;10.10;;
23517;SDS011;11935;50.878;4.392;2023-01-28T08:55:13;14.43;;;9.33;;
23517;SDS011;11935;50.878;4.392;2023-01-28T08:57:39;14.48;;;9.55;;
23517;SDS011;11935;50.878;4.392;2023-01-28T09:00:06;14.60;;;9.10;;
23517;SDS011;11935;50.878;4.392;2023-01-28T09:02:34;17.52;;;9.70;;
23517;SDS011;11935;50.878;4.392;2023-01-28T09:05:00;14.18;;;9.63;;
23517;SDS011;11935;50.878;4.392;2023-01-28T09:07:26;15.38;;;10.38;;
23517;SDS011;11935;50.878;4.392;2023-01-28T09:09:53;15.80;;;10.20;;
23517;SDS011;11935;50.878;4.392;2023-01-28T09:12:19;14.15;;;9.55;;
23517;SDS011;11935;50.878;4.392;2023-01-28T09:14:45;16.17;;;10.82;;
23517;SDS011;11935;50.878;4.392;2023-01-28T09:17:11;15.45;;;11.10;;
23517;SDS011;11935;50.878;4.392;2023-01-28T09:19:37;17.45;;;11.02;;
23517;SDS011;11935;50.878;4.392;2023-01-28T09:22:03;14.85;;;10.10;;
23517;SDS011;11935;50.878;4.392;2023-01-28T09:24:29;17.38;;;10.77;;
23517;SDS011;11935;50.878;4.392;2023-01-28T09:26:55;17.90;;;10.75;;
23517;SDS011;11935;50.878;4.392;2023-01-28T09:29:22;16.85;;;10.82;;
23517;SDS011;11935;50.878;4.392;2023-01-28T09:31:48;16.08;;;10.60;;
23517;SDS011;11935;50.878;4.392;2023-01-28T09:34:14;16.23;;;10.20;;
23517;SDS011;11935;50.878;4.392;2023-01-28T09:36:40;14.70;;;9.32;;
23517;SDS011;11935;50.878;4.392;2023-01-28T09:39:06;16.38;;;10.20;;
23517;SDS011;11935;50.878;4.392;2023-01-28T09:41:40;15.48;;;10.68;;
23517;SDS011;11935;50.878;4.392;2023-01-28T09:44:20;17.17;;;11.43;;
23517;SDS011;11935;50.878;4.392;2023-01-28T09:46:47;16.63;;;10.68;;
23517;SDS011;11935;50.878;4.392;2023-01-28T09:49:25;20.25;;;11.50;;
23517;SDS011;11935;50.878;4.392;2023-01-28T09:51:52;17.55;;;10.73;;
23517;SDS011;11935;50.878;4.392;2023-01-28T09:56:45;17.23;;;10.95;;
23517;SDS011;11935;50.878;4.392;2023-01-28T09:59:18;15.98;;;11.23;;
23517;SDS011;11935;50.878;4.392;2023-01-28T10:01:56;16.73;;;10.98;;
23517;SDS011;11935;50.878;4.392;2023-01-28T10:04:27;18.15;;;11.88;;
23517;SDS011;11935;50.878;4.392;2023-01-28T10:17:38;17.63;;;11.93;;
23517;SDS011;11935;50.878;4.392;2023-01-28T10:22:48;17.90;;;8.82;;
23517;SDS011;11935;50.878;4.392;2023-01-28T10:25:16;18.95;;;11.45;;
23517;SDS011;11935;50.878;4.392;2023-01-28T10:30:16;17.83;;;10.18;;
23517;SDS011;11935;50.878;4.392;2023-01-28T10:32:46;16.55;;;10.50;;
23517;SDS011;11935;50.878;4.392;2023-01-28T10:35:14;27.35;;;16.02;;
23517;SDS011;11935;50.878;4.392;2023-01-28T10:37:40;18.23;;;11.88;;
23517;SDS011;11935;50.878;4.392;2023-01-28T10:40:06;17.35;;;11.65;;
23517;SDS011;11935;50.878;4.392;2023-01-28T10:42:37;18.17;;;11.70;;
23517;SDS011;11935;50.878;4.392;2023-01-28T10:45:07;17.40;;;10.63;;
23517;SDS011;11935;50.878;4.392;2023-01-28T10:47:37;16.85;;;9.82;;
23517;SDS011;11935;50.878;4.392;2023-01-28T10:50:04;13.02;;;8.27;;
23517;SDS011;11935;50.878;4.392;2023-01-28T10:52:33;18.35;;;9.63;;
23517;SDS011;11935;50.878;4.392;2023-01-28T10:55:03;16.85;;;10.15;;
23517;SDS011;11935;50.878;4.392;2023-01-28T10:57:32;16.85;;;11.02;;
23517;SDS011;11935;50.878;4.392;2023-01-28T11:00:08;14.82;;;10.25;;
23517;SDS011;11935;50.878;4.392;2023-01-28T11:02:34;15.85;;;10.48;;
23517;SDS011;11935;50.878;4.392;2023-01-28T11:07:30;14.85;;;9.45;;
23517;SDS011;11935;50.878;4.392;2023-01-28T11:09:56;15.98;;;9.23;;
23517;SDS011;11935;50.878;4.392;2023-01-28T11:12:26;13.48;;;9.82;;
23517;SDS011;11935;50.878;4.392;2023-01-28T11:15:00;15.77;;;9.43;;
23517;SDS011;11935;50.878;4.392;2023-01-28T11:17:27;11.32;;;6.90;;
23517;SDS011;11935;50.878;4.392;2023-01-28T11:19:55;14.23;;;9.70;;
23517;SDS011;11935;50.878;4.392;2023-01-28T11:24:47;14.80;;;9.63;;
23517;SDS011;11935;50.878;4.392;2023-01-28T11:27:17;17.40;;;10.23;;
23517;SDS011;11935;50.878;4.392;2023-01-28T11:29:43;15.60;;;10.25;;
23517;SDS011;11935;50.878;4.392;2023-01-28T11:32:19;13.48;;;8.48;;
23517;SDS011;11935;50.878;4.392;2023-01-28T11:34:53;15.38;;;10.02;;
23517;SDS011;11935;50.878;4.392;2023-01-28T11:37:22;16.02;;;9.75;;
23517;SDS011;11935;50.878;4.392;2023-01-28T11:39:48;15.63;;;10.25;;
23517;SDS011;11935;50.878;4.392;2023-01-28T11:42:25;16.25;;;10.07;;
23517;SDS011;11935;50.878;4.392;2023-01-28T11:44:51;20.05;;;10.18;;
23517;SDS011;11935;50.878;4.392;2023-01-28T11:50:19;16.45;;;10.02;;
23517;SDS011;11935;50.878;4.392;2023-01-28T11:52:45;15.40;;;10.35;;
23517;SDS011;11935;50.878;4.392;2023-01-28T12:10:34;15.20;;;9.30;;
23517;SDS011;11935;50.878;4.392;2023-01-28T12:26:43;14.35;;;9.07;;
23517;SDS011;11935;50.878;4.392;2023-01-28T12:29:26;15.85;;;9.50;;
23517;SDS011;11935;50.878;4.392;2023-01-28T12:39:39;15.02;;;9.65;;
23517;SDS011;11935;50.878;4.392;2023-01-28T12:42:19;12.73;;;8.38;;
23517;SDS011;11935;50.878;4.392;2023-01-28T12:44:49;16.30;;;9.55;;
23517;SDS011;11935;50.878;4.392;2023-01-28T12:47:25;14.18;;;8.55;;
23517;SDS011;11935;50.878;4.392;2023-01-28T12:49:54;15.52;;;10.32;;
23517;SDS011;11935;50.878;4.392;2023-01-28T12:52:29;14.65;;;8.80;;
23517;SDS011;11935;50.878;4.392;2023-01-28T12:57:25;14.15;;;9.27;;
23517;SDS011;11935;50.878;4.392;2023-01-28T13:02:34;13.88;;;9.55;;
23517;SDS011;11935;50.878;4.392;2023-01-28T13:09:57;15.90;;;9.68;;
23517;SDS011;11935;50.878;4.392;2023-01-28T13:12:28;15.65;;;9.90;;
23517;SDS011;11935;50.878;4.392;2023-01-28T13:14:55;15.85;;;10.30;;
23517;SDS011;11935;50.878;4.392;2023-01-28T13:17:30;14.98;;;9.57;;
23517;SDS011;11935;50.878;4.392;2023-01-28T13:19:59;13.68;;;9.43;;
23517;SDS011;11935;50.878;4.392;2023-01-28T13:24:52;14.88;;;9.93;;
23517;SDS011;11935;50.878;4.392;2023-01-28T13:27:22;15.32;;;10.77;;
23517;SDS011;11935;50.878;4.392;2023-01-28T13:29:58;16.40;;;10.85;;
23517;SDS011;11935;50.878;4.392;2023-01-28T13:32:26;15.52;;;10.27;;
23517;SDS011;11935;50.878;4.392;2023-01-28T13:34:58;17.38;;;10.52;;
23517;SDS011;11935;50.878;4.392;2023-01-28T13:37:28;15.43;;;10.25;;
23517;SDS011;11935;50.878;4.392;2023-01-28T13:42:28;16.60;;;10.57;;
23517;SDS011;11935;50.878;4.392;2023-01-28T13:44:55;16.50;;;10.00;;
23517;SDS011;11935;50.878;4.392;2023-01-28T13:47:26;15.93;;;10.75;;
23517;SDS011;11935;50.878;4.392;2023-01-28T13:52:31;17.85;;;11.27;;
23517;SDS011;11935;50.878;4.392;2023-01-28T13:55:06;18.30;;;12.10;;
23517;SDS011;11935;50.878;4.392;2023-01-28T14:18:41;16.33;;;11.02;;
23517;SDS011;11935;50.878;4.392;2023-01-28T14:21:11;17.30;;;11.27;;
23517;SDS011;11935;50.878;4.392;2023-01-28T14:23:43;32.03;;;17.95;;
23517;SDS011;11935;50.878;4.392;2023-01-28T14:26:15;24.17;;;14.98;;
23517;SDS011;11935;50.878;4.392;2023-01-28T14:28:47;17.83;;;12.35;;
23517;SDS011;11935;50.878;4.392;2023-01-28T14:31:15;19.02;;;11.38;;
23517;SDS011;11935;50.878;4.392;2023-01-28T14:33:43;17.02;;;11.68;;
23517;SDS011;11935;50.878;4.392;2023-01-28T14:36:10;16.23;;;11.27;;
23517;SDS011;11935;50.878;4.392;2023-01-28T14:38:40;18.15;;;10.65;;
23517;SDS011;11935;50.878;4.392;2023-01-28T14:43:34;17.67;;;10.98;;
23517;SDS011;11935;50.878;4.392;2023-01-28T14:51:10;20.88;;;13.80;;
23517;SDS011;11935;50.878;4.392;2023-01-28T14:59:24;17.42;;;11.43;;
23517;SDS011;11935;50.878;4.392;2023-01-28T15:01:55;18.60;;;12.43;;
23517;SDS011;11935;50.878;4.392;2023-01-28T15:04:25;17.33;;;11.55;;
23517;SDS011;11935;50.878;4.392;2023-01-28T15:06:51;17.42;;;11.52;;
23517;SDS011;11935;50.878;4.392;2023-01-28T15:09:17;16.83;;;11.75;;
23517;SDS011;11935;50.878;4.392;2023-01-28T15:11:44;24.17;;;15.57;;
23517;SDS011;11935;50.878;4.392;2023-01-28T15:14:15;23.95;;;13.13;;
23517;SDS011;11935;50.878;4.392;2023-01-28T15:16:48;19.20;;;11.77;;
23517;SDS011;11935;50.878;4.392;2023-01-28T15:19:14;19.25;;;12.40;;
23517;SDS011;11935;50.878;4.392;2023-01-28T15:21:42;18.80;;;11.45;;
23517;SDS011;11935;50.878;4.392;2023-01-28T15:24:09;18.87;;;12.83;;
23517;SDS011;11935;50.878;4.392;2023-01-28T15:26:36;19.58;;;12.32;;
23517;SDS011;11935;50.878;4.392;2023-01-28T15:29:03;22.73;;;12.02;;
23517;SDS011;11935;50.878;4.392;2023-01-28T15:31:30;18.15;;;12.35;;
23517;SDS011;11935;50.878;4.392;2023-01-28T15:36:23;19.95;;;11.85;;
23517;SDS011;11935;50.878;4.392;2023-01-28T15:38:50;19.85;;;11.55;;
23517;SDS011;11935;50.878;4.392;2023-01-28T15:41:17;16.13;;;10.80;;
23517;SDS011;11935;50.878;4.392;2023-01-28T15:43:45;20.10;;;11.82;;
23517;SDS011;11935;50.878;4.392;2023-01-28T15:46:12;24.67;;;15.10;;
23517;SDS011;11935;50.878;4.392;2023-01-28T15:48:40;18.50;;;12.13;;
23517;SDS011;11935;50.878;4.392;2023-01-28T15:51:08;19.35;;;12.30;;
23517;SDS011;11935;50.878;4.392;2023-01-28T15:53:42;19.50;;;12.02;;
23517;SDS011;11935;50.878;4.392;2023-01-28T15:56:13;18.57;;;12.67;;
23517;SDS011;11935;50.878;4.392;2023-01-28T15:58:39;17.75;;;11.77;;
23517;SDS011;11935;50.878;4.392;2023-01-28T16:03:36;19.38;;;12.32;;
23517;SDS011;11935;50.878;4.392;2023-01-28T16:06:10;17.70;;;11.85;;
23517;SDS011;11935;50.878;4.392;2023-01-28T16:11:07;23.60;;;12.45;;
23517;SDS011;11935;50.878;4.392;2023-01-28T16:13:34;20.35;;;10.98;;
23517;SDS011;11935;50.878;4.392;2023-01-28T16:16:02;17.80;;;10.90;;
23517;SDS011;11935;50.878;4.392;2023-01-28T16:21:01;18.27;;;11.00;;
23517;SDS011;11935;50.878;4.392;2023-01-28T16:23:29;17.27;;;10.77;;
23517;SDS011;11935;50.878;4.392;2023-01-28T16:26:02;17.83;;;10.43;;
23517;SDS011;11935;50.878;4.392;2023-01-28T16:28:28;20.15;;;10.90;;
23517;SDS011;11935;50.878;4.392;2023-01-28T16:30:56;18.23;;;9.65;;
23517;SDS011;11935;50.878;4.392;2023-01-28T16:33:22;15.38;;;9.60;;
23517;SDS011;11935;50.878;4.392;2023-01-28T16:35:49;19.50;;;11.50;;
23517;SDS011;11935;50.878;4.392;2023-01-28T16:38:16;19.17;;;11.55;;
23517;SDS011;11935;50.878;4.392;2023-01-28T16:40:42;21.08;;;13.10;;
23517;SDS011;11935;50.878;4.392;2023-01-28T16:43:09;18.40;;;11.07;;
23517;SDS011;11935;50.878;4.392;2023-01-28T16:45:36;21.33;;;12.88;;
23517;SDS011;11935;50.878;4.392;2023-01-28T16:48:02;17.42;;;11.20;;
23517;SDS011;11935;50.878;4.392;2023-01-28T16:50:28;17.13;;;11.20;;
23517;SDS011;11935;50.878;4.392;2023-01-28T16:52:55;22.90;;;15.17;;
23517;SDS011;11935;50.878;4.392;2023-01-28T16:55:22;19.63;;;11.05;;
23517;SDS011;11935;50.878;4.392;2023-01-28T16:57:49;17.20;;;10.82;;
23517;SDS011;11935;50.878;4.392;2023-01-28T17:02:43;19.50;;;13.43;;
23517;SDS011;11935;50.878;4.392;2023-01-28T17:05:10;15.43;;;9.65;;
23517;SDS011;11935;50.878;4.392;2023-01-28T17:07:36;14.57;;;9.65;;
23517;SDS011;11935;50.878;4.392;2023-01-28T17:10:03;18.23;;;10.68;;
23517;SDS011;11935;50.878;4.392;2023-01-28T17:12:30;22.63;;;12.88;;
23517;SDS011;11935;50.878;4.392;2023-01-28T17:14:56;16.75;;;10.20;;